createdAt,value
2017-10-13T00:01:22.375Z,99251.23
2017-10-13T00:03:50.758Z,99255.13
2017-10-13T00:06:20.041Z,99260.84
2017-10-13T00:08:48.694Z,99261.94
2017-10-13T00:11:17.117Z,99262.31
2017-10-13T00:13:48.902Z,99265.03
2017-10-13T00:16:17.241Z,99266.90
2017-10-13T00:18:45.624Z,99264.09
2017-10-13T00:21:17.095Z,99261.30
2017-10-13T00:23:47.347Z,99265.16
2017-10-13T00:26:15.693Z,99262.89
2017-10-13T00:28:44.056Z,99264.75
2017-10-13T00:31:15.837Z,99262.28
2017-10-13T00:33:44.196Z,99268.67
2017-10-13T00:36:12.589Z,99261.37
2017-10-13T00:38:40.989Z,99256.94
2017-10-13T00:41:10.261Z,99257.52
2017-10-13T00:43:39.810Z,99257.30
2017-10-13T00:46:08.250Z,99256.20
2017-10-13T00:48:36.648Z,99254.63
2017-10-13T00:51:05.034Z,99261.02
2017-10-13T00:53:36.489Z,99255.85
2017-10-13T00:56:09.450Z,99248.64
2017-10-13T00:58:41.512Z,99246.23
2017-10-13T01:01:09.919Z,99243.70
2017-10-13T01:03:38.288Z,99251.84
2017-10-13T01:06:06.708Z,99245.72
2017-10-13T01:08:35.956Z,99246.47
2017-10-13T01:11:08.946Z,99245.91
2017-10-13T01:13:38.137Z,99248.77
2017-10-13T01:16:06.653Z,99247.64
2017-10-13T01:18:35.022Z,99251.02
2017-10-13T01:21:03.385Z,99256.13
2017-10-13T01:23:36.389Z,99246.97
2017-10-13T01:26:04.752Z,99252.34
2017-10-13T01:28:33.420Z,99253.80
2017-10-13T01:31:05.503Z,99255.86
2017-10-13T01:33:34.160Z,99244.89
2017-10-13T01:36:04.116Z,99257.44
2017-10-13T01:38:32.545Z,99260.08
2017-10-13T01:41:01.807Z,99260.50
2017-10-13T01:43:30.155Z,99258.48
2017-10-13T01:45:58.565Z,99253.66
2017-10-13T01:48:26.940Z,99255.52
2017-10-13T01:50:55.333Z,99254.14
2017-10-13T01:53:27.377Z,99253.58
2017-10-13T01:55:57.632Z,99249.73
2017-10-13T01:58:25.984Z,99250.56
2017-10-13T02:00:54.365Z,99256.14
2017-10-13T02:03:22.832Z,99253.27
2017-10-13T02:05:53.282Z,99254.77
2017-10-13T02:08:34.174Z,99252.48
2017-10-13T02:11:02.653Z,99258.93
2017-10-13T02:13:31.015Z,99262.65
2017-10-13T02:15:59.371Z,99269.63
2017-10-13T02:18:27.780Z,99272.66
2017-10-13T02:20:59.552Z,99269.56
2017-10-13T02:23:27.908Z,99277.69
2017-10-13T02:25:56.283Z,99274.47
2017-10-13T02:28:26.506Z,99279.08
2017-10-13T02:30:54.914Z,99275.41
2017-10-13T02:33:23.269Z,99277.47
2017-10-13T02:35:53.520Z,99276.39
2017-10-13T02:38:21.876Z,99283.44
2017-10-13T02:40:50.252Z,99278.86
2017-10-13T02:43:23.568Z,99280.17
2017-10-13T02:45:51.919Z,99279.50
2017-10-13T02:48:20.338Z,99270.09
2017-10-13T02:50:51.760Z,99278.22
2017-10-13T02:53:23.231Z,99279.42
2017-10-13T02:55:54.971Z,99280.84
2017-10-13T02:58:27.316Z,99281.84
2017-10-13T03:00:55.714Z,99284.05
2017-10-13T03:03:25.962Z,99287.23
2017-10-13T03:05:54.350Z,99289.55
2017-10-13T03:08:22.826Z,99287.49
2017-10-13T03:10:53.238Z,99281.12
2017-10-13T03:13:21.607Z,99289.79
2017-10-13T03:15:50.941Z,99285.05
2017-10-13T03:18:19.297Z,99286.84
2017-10-13T03:20:47.679Z,99283.40
2017-10-13T03:23:20.675Z,99279.61
2017-10-13T03:25:53.049Z,99278.00
2017-10-13T03:28:21.468Z,99281.75
2017-10-13T03:30:49.834Z,99278.19
2017-10-13T03:33:18.208Z,99280.98
2017-10-13T03:35:49.635Z,99275.73
2017-10-13T03:38:18.039Z,99277.72
2017-10-13T03:40:46.390Z,99276.23
2017-10-13T03:43:14.764Z,99279.68
2017-10-13T03:45:43.188Z,99286.30
2017-10-13T03:48:11.541Z,99279.59
2017-10-13T03:50:40.912Z,99283.53
2017-10-13T03:53:09.204Z,99285.81
2017-10-13T03:55:38.242Z,99292.84
2017-10-13T03:58:06.553Z,99287.30
2017-10-13T04:00:35.587Z,99283.12
2017-10-13T04:03:03.973Z,99284.34
2017-10-13T04:05:32.355Z,99279.63
2017-10-13T04:08:00.739Z,99280.77
2017-10-13T04:10:29.163Z,99279.73
2017-10-13T04:12:58.423Z,99275.05
2017-10-13T04:15:27.059Z,99280.38
2017-10-13T04:17:55.811Z,99280.61
2017-10-13T04:20:24.148Z,99275.63
2017-10-13T04:22:52.454Z,99280.77
2017-10-13T04:25:20.915Z,99283.23
2017-10-13T04:27:49.315Z,99289.46
2017-10-13T04:30:17.678Z,99294.20
2017-10-13T04:32:45.963Z,99292.97
2017-10-13T04:35:14.232Z,99292.07
2017-10-13T04:37:43.298Z,99300.34
2017-10-13T04:40:11.571Z,99302.08
2017-10-13T04:42:40.678Z,99302.57
2017-10-13T04:45:08.976Z,99301.86
2017-10-13T04:47:37.249Z,99299.36
2017-10-13T04:50:05.533Z,99304.52
2017-10-13T04:52:33.814Z,99317.19
2017-10-13T04:55:02.097Z,99317.98
2017-10-13T04:57:31.620Z,99315.28
2017-10-13T04:59:59.881Z,99315.77
2017-10-13T05:02:28.179Z,99318.16
2017-10-13T05:04:56.552Z,99326.09
2017-10-13T05:07:24.806Z,99321.25
2017-10-13T05:09:53.087Z,99321.92
2017-10-13T05:12:21.376Z,99320.14
2017-10-13T05:14:49.674Z,99317.80
2017-10-13T05:17:17.955Z,99321.95
2017-10-13T05:19:46.235Z,99320.23
2017-10-13T05:22:14.519Z,99319.68
2017-10-13T05:24:42.828Z,99313.85
2017-10-13T05:27:11.103Z,99314.35
2017-10-13T05:29:40.135Z,99313.70
2017-10-13T05:32:08.430Z,99308.95
2017-10-13T05:34:36.678Z,99306.92
2017-10-13T05:37:07.022Z,99304.77
2017-10-13T05:39:35.374Z,99296.83
2017-10-13T05:42:03.617Z,99303.56
2017-10-13T05:44:31.908Z,99298.63
2017-10-13T05:47:00.947Z,99306.23
2017-10-13T05:49:29.617Z,99309.68
2017-10-13T05:51:57.871Z,99312.56
2017-10-13T05:54:26.140Z,99309.13
2017-10-13T05:56:54.419Z,99320.25
2017-10-13T05:59:23.452Z,99311.48
2017-10-13T06:01:53.061Z,99317.45
2017-10-13T06:04:21.329Z,99321.16
2017-10-13T06:06:49.616Z,99320.41
2017-10-13T06:09:17.889Z,99314.67
2017-10-13T06:11:46.160Z,99298.75
2017-10-13T06:14:14.440Z,99288.52
2017-10-13T06:16:42.739Z,99299.45
2017-10-13T06:19:11.003Z,99295.03
2017-10-13T06:21:39.281Z,99308.14
2017-10-13T06:24:07.554Z,99306.41
2017-10-13T06:26:35.837Z,99308.27
2017-10-13T06:29:05.170Z,99313.06
2017-10-13T06:31:33.439Z,99316.91
2017-10-13T06:34:01.716Z,99318.23
2017-10-13T06:36:31.309Z,99319.12
2017-10-13T06:38:59.589Z,99325.08
2017-10-13T06:41:27.847Z,99325.24
2017-10-13T06:43:56.128Z,99326.92
2017-10-13T06:46:24.419Z,99333.89
2017-10-13T06:48:52.685Z,99337.55
2017-10-13T06:51:20.983Z,99339.84
2017-10-13T06:53:49.252Z,99339.67
2017-10-13T06:56:17.531Z,99343.62
2017-10-13T06:58:45.841Z,99343.75
2017-10-13T07:01:14.793Z,99341.16
2017-10-13T07:03:43.644Z,99341.29
2017-10-13T07:06:13.895Z,99343.38
2017-10-13T07:08:43.417Z,99344.45
2017-10-13T07:11:12.510Z,99343.06
2017-10-13T07:13:42.090Z,99345.03
2017-10-13T07:16:11.070Z,99343.17
2017-10-13T07:18:40.397Z,99343.39
2017-10-13T07:21:09.450Z,99344.14
2017-10-13T07:23:38.208Z,99345.68
2017-10-13T07:26:07.267Z,99348.09
2017-10-13T07:28:36.268Z,99345.41
2017-10-13T07:31:06.297Z,99350.37
2017-10-13T07:33:35.312Z,99356.72
2017-10-13T07:36:04.381Z,99355.38
2017-10-13T07:38:33.319Z,99361.65
2017-10-13T07:41:02.211Z,99356.03
2017-10-13T07:43:31.208Z,99352.30
2017-10-13T07:46:00.065Z,99352.52
2017-10-13T07:48:28.732Z,99355.66
2017-10-13T07:50:59.054Z,99357.89
2017-10-13T07:53:28.371Z,99361.61
2017-10-13T07:55:58.193Z,99363.71
2017-10-13T07:58:27.507Z,99371.38
2017-10-13T08:00:56.247Z,99368.05
2017-10-13T08:03:25.369Z,99368.00
2017-10-13T08:05:55.240Z,99369.58
2017-10-13T08:08:24.510Z,99367.27
2017-10-13T08:10:53.511Z,99368.84
2017-10-13T08:13:22.858Z,99382.67
2017-10-13T08:15:52.435Z,99372.80
2017-10-13T08:18:21.983Z,99375.89
2017-10-13T08:20:50.688Z,99371.20
2017-10-13T08:23:19.954Z,99381.53
2017-10-13T08:25:48.921Z,99374.78
2017-10-13T08:28:17.504Z,99379.59
2017-10-13T08:30:47.232Z,99387.88
2017-10-13T08:33:16.606Z,99385.92
2017-10-13T08:35:45.358Z,99388.69
2017-10-13T08:38:14.222Z,99386.50
2017-10-13T08:40:43.202Z,99388.89
2017-10-13T08:43:12.110Z,99388.84
2017-10-13T08:45:42.568Z,99381.58
2017-10-13T08:48:11.370Z,99375.94
2017-10-13T08:50:41.885Z,99390.50
2017-10-13T08:53:10.169Z,99383.08
2017-10-13T08:55:38.437Z,99385.25
2017-10-13T08:58:07.098Z,99391.73
2017-10-13T09:00:36.161Z,99386.81
2017-10-13T09:03:04.976Z,99395.58
2017-10-13T09:05:34.608Z,99395.41
2017-10-13T09:08:04.981Z,99395.85
2017-10-13T09:10:34.498Z,99389.97
2017-10-13T09:13:03.374Z,99394.40
2017-10-13T09:15:32.929Z,99391.79
2017-10-13T09:18:01.955Z,99390.80
2017-10-13T09:20:31.484Z,99386.32
2017-10-13T09:23:06.170Z,99387.46
2017-10-13T09:25:36.034Z,99388.63
2017-10-13T09:28:05.091Z,99389.59
2017-10-13T09:30:34.777Z,99394.79
2017-10-13T09:33:03.990Z,99392.61
2017-10-13T09:35:32.783Z,99388.18
2017-10-13T09:38:02.181Z,99392.02
2017-10-13T09:40:31.465Z,99398.52
2017-10-13T09:43:00.535Z,99405.55
2017-10-13T09:45:29.449Z,99402.93
2017-10-13T09:47:58.787Z,99401.80
2017-10-13T09:50:27.981Z,99403.23
2017-10-13T09:52:58.589Z,99396.22
2017-10-13T09:55:27.067Z,99401.22
2017-10-13T09:57:56.162Z,99395.28
2017-10-13T10:00:25.370Z,99396.64
2017-10-13T10:02:55.483Z,99390.85
2017-10-13T10:05:25.191Z,99392.92
2017-10-13T10:07:54.333Z,99388.35
2017-10-13T10:10:23.597Z,99386.13
2017-10-13T10:12:53.809Z,99384.56
2017-10-13T10:15:22.186Z,99387.22
2017-10-13T10:17:51.003Z,99381.53
2017-10-13T10:20:20.792Z,99378.08
2017-10-13T10:22:50.199Z,99375.05
2017-10-13T10:25:19.181Z,99375.89
2017-10-13T10:27:49.407Z,99368.87
2017-10-13T10:30:18.136Z,99369.37
2017-10-13T10:32:47.203Z,99367.15
2017-10-13T10:35:16.920Z,99371.45
2017-10-13T10:37:47.744Z,99367.49
2017-10-13T10:40:17.005Z,99366.92
2017-10-13T10:42:46.033Z,99367.36
2017-10-13T10:45:15.414Z,99369.73
2017-10-13T10:47:44.338Z,99368.33
2017-10-13T10:50:12.863Z,99363.86
2017-10-13T10:52:41.315Z,99366.42
2017-10-13T10:55:10.349Z,99366.73
2017-10-13T10:57:38.817Z,99367.33
2017-10-13T11:00:07.200Z,99363.67
2017-10-13T11:02:36.533Z,99365.00
2017-10-13T11:05:06.736Z,99370.38
2017-10-13T11:07:37.889Z,99368.33
2017-10-13T11:10:06.248Z,99372.69
2017-10-13T11:12:35.905Z,99370.50
2017-10-13T11:15:05.066Z,99369.48
2017-10-13T11:17:35.868Z,99367.02
2017-10-13T11:20:04.310Z,99362.22
2017-10-13T11:22:32.609Z,99359.29
2017-10-13T11:25:00.916Z,99364.69
2017-10-13T11:27:30.359Z,99360.74
2017-10-13T11:29:59.916Z,99362.02
2017-10-13T11:32:29.922Z,99366.90
2017-10-13T11:34:59.108Z,99364.57
2017-10-13T11:37:29.571Z,99366.00
2017-10-13T11:39:59.225Z,99362.53
2017-10-13T11:42:29.333Z,99362.03
2017-10-13T11:44:58.849Z,99360.61
2017-10-13T11:47:31.208Z,99357.25
2017-10-13T11:50:01.706Z,99356.55
2017-10-13T11:52:29.993Z,99362.45
2017-10-13T11:54:58.361Z,99368.56
2017-10-13T11:57:27.344Z,99365.91
2017-10-13T11:59:58.113Z,99361.64
2017-10-13T12:02:26.902Z,99364.28
2017-10-13T12:04:57.279Z,99358.39
2017-10-13T12:07:25.944Z,99358.71
2017-10-13T12:09:55.598Z,99350.15
2017-10-13T12:12:23.957Z,99352.30
2017-10-13T12:14:53.493Z,99349.33
2017-10-13T12:17:21.790Z,99343.34
2017-10-13T12:19:50.157Z,99343.45
2017-10-13T12:22:18.475Z,99347.73
2017-10-13T12:24:46.813Z,99345.18
2017-10-13T12:27:15.465Z,99341.21
2017-10-13T12:29:43.849Z,99344.67
2017-10-13T12:32:13.445Z,99330.52
2017-10-13T12:34:42.932Z,99338.16
2017-10-13T12:37:11.868Z,99337.65
2017-10-13T12:39:41.880Z,99342.12
2017-10-13T12:42:13.109Z,99337.05
2017-10-13T12:44:42.715Z,99343.36
2017-10-13T12:47:12.751Z,99342.53
2017-10-13T12:49:43.281Z,99342.34
2017-10-13T12:52:12.210Z,99344.08
2017-10-13T12:54:42.283Z,99339.91
2017-10-13T12:57:12.444Z,99336.54
2017-10-13T12:59:41.114Z,99337.45
2017-10-13T13:02:10.760Z,99338.59
2017-10-13T13:04:40.156Z,99336.73
2017-10-13T13:07:09.308Z,99336.63
2017-10-13T13:09:37.602Z,99332.66
2017-10-13T13:12:06.683Z,99339.19
2017-10-13T13:14:35.706Z,99331.14
2017-10-13T13:17:04.689Z,99335.44
2017-10-13T13:19:33.515Z,99334.80
2017-10-13T13:22:03.498Z,99333.88
2017-10-13T13:24:33.626Z,99334.70
2017-10-13T13:27:03.043Z,99335.51
2017-10-13T13:29:31.316Z,99330.20
2017-10-13T13:32:00.361Z,99338.06
2017-10-13T13:34:29.746Z,99328.97
2017-10-13T13:36:59.810Z,99322.78
2017-10-13T13:39:28.906Z,99321.45
2017-10-13T13:41:58.528Z,99325.02
2017-10-13T13:44:27.419Z,99326.56
2017-10-13T13:46:57.637Z,99325.55
2017-10-13T13:49:26.645Z,99326.34
2017-10-13T13:51:56.023Z,99325.55
2017-10-13T13:54:24.576Z,99330.53
2017-10-13T13:56:53.879Z,99330.73
2017-10-13T13:59:23.746Z,99334.77
2017-10-13T14:01:53.630Z,99333.36
2017-10-13T14:04:23.269Z,99328.06
2017-10-13T14:06:52.066Z,99325.41
2017-10-13T14:09:20.430Z,99322.86
2017-10-13T14:11:49.945Z,99319.80
2017-10-13T14:14:19.125Z,99317.97
2017-10-13T14:16:48.451Z,99314.32
2017-10-13T14:19:17.654Z,99316.05
2017-10-13T14:21:46.662Z,99310.03
2017-10-13T14:24:15.674Z,99309.53
2017-10-13T14:26:45.761Z,99309.22
2017-10-13T14:29:14.830Z,99310.25
2017-10-13T14:31:44.393Z,99307.80
2017-10-13T14:34:13.514Z,99306.28
2017-10-13T14:36:44.131Z,99303.53
2017-10-13T14:39:13.377Z,99307.09
2017-10-13T14:41:42.700Z,99304.72
2017-10-13T14:44:11.790Z,99303.33
2017-10-13T14:46:40.211Z,99303.54
2017-10-13T14:49:08.832Z,99309.34
2017-10-13T14:51:37.985Z,99302.20
2017-10-13T14:54:08.233Z,99303.42
2017-10-13T14:56:37.110Z,99305.66
2017-10-13T14:59:06.363Z,99301.17
2017-10-13T15:01:35.371Z,99296.19
2017-10-13T15:04:04.871Z,99297.67
2017-10-13T15:06:33.255Z,99296.42
2017-10-13T15:09:02.215Z,99295.73
2017-10-13T15:11:31.320Z,99289.99
2017-10-13T15:13:59.667Z,99299.23
2017-10-13T15:16:28.514Z,99294.72
2017-10-13T15:18:57.211Z,99292.56
2017-10-13T15:21:25.548Z,99290.19
2017-10-13T15:23:54.213Z,99294.34
2017-10-13T15:26:29.944Z,99289.59
2017-10-13T15:29:04.705Z,99293.16
2017-10-13T15:31:39.222Z,99289.48
2017-10-13T15:34:13.884Z,99292.29
2017-10-13T15:36:42.612Z,99294.58
2017-10-13T15:39:16.444Z,99304.27
2017-10-13T15:41:50.743Z,99297.38
2017-10-13T15:44:24.784Z,99297.88
2017-10-13T15:46:58.641Z,99304.77
2017-10-13T15:49:32.456Z,99300.53
2017-10-13T15:52:06.339Z,99294.78
2017-10-13T15:54:40.524Z,99298.56
2017-10-13T15:57:08.802Z,99296.57
2017-10-13T15:59:37.081Z,99298.66
2017-10-13T16:02:05.409Z,99301.42
2017-10-13T16:04:37.171Z,99304.45
2017-10-13T16:07:05.695Z,99305.98
2017-10-13T16:09:33.991Z,99310.51
2017-10-13T16:12:02.273Z,99309.36
2017-10-13T16:14:30.598Z,99309.55
2017-10-13T16:16:58.944Z,99311.95
2017-10-13T16:19:27.250Z,99317.77
2017-10-13T16:21:55.541Z,99313.09
2017-10-13T16:24:24.095Z,99312.89
2017-10-13T16:26:52.355Z,99317.09
2017-10-13T16:29:20.640Z,99317.10
2017-10-13T16:31:48.941Z,99323.00
2017-10-13T16:34:17.906Z,99318.39
2017-10-13T16:36:46.246Z,99320.43
2017-10-13T16:39:14.919Z,99318.38
2017-10-13T16:41:43.579Z,99316.09
2017-10-13T16:44:12.849Z,99319.21
2017-10-13T16:46:41.135Z,99320.09
2017-10-13T16:49:09.636Z,99319.95
2017-10-13T16:51:38.161Z,99322.37
2017-10-13T16:54:06.544Z,99328.06
2017-10-13T16:56:35.597Z,99325.84
2017-10-13T16:59:03.887Z,99326.90
2017-10-13T17:01:32.153Z,99321.17
2017-10-13T17:04:00.421Z,99330.77
2017-10-13T17:06:29.114Z,99328.23
2017-10-13T17:08:58.101Z,99324.91
2017-10-13T17:11:26.813Z,99331.87
2017-10-13T17:13:55.220Z,99332.34
2017-10-13T17:16:24.455Z,99335.53
2017-10-13T17:18:52.727Z,99343.75
2017-10-13T17:21:21.013Z,99345.93
2017-10-13T17:23:50.165Z,99347.72
2017-10-13T17:26:18.506Z,99348.38
2017-10-13T17:28:46.787Z,99349.05
2017-10-13T17:31:15.063Z,99351.63
2017-10-13T17:33:43.355Z,99345.13
2017-10-13T17:36:11.644Z,99354.30
2017-10-13T17:38:39.941Z,99356.09
2017-10-13T17:41:08.581Z,99354.38
2017-10-13T17:43:36.845Z,99362.39
2017-10-13T17:46:05.183Z,99359.79
2017-10-13T17:48:34.340Z,99359.79
2017-10-13T17:51:02.667Z,99368.18
2017-10-13T17:53:30.944Z,99365.16
2017-10-13T17:56:00.017Z,99362.02
2017-10-13T17:58:28.325Z,99364.38
2017-10-13T18:00:56.619Z,99367.72
2017-10-13T18:03:24.928Z,99365.41
2017-10-13T18:05:53.345Z,99364.60
2017-10-13T18:08:22.425Z,99354.51
2017-10-13T18:10:50.700Z,99360.23
2017-10-13T18:13:19.017Z,99366.38
2017-10-13T18:15:47.319Z,99367.16
2017-10-13T18:18:15.646Z,99368.77
2017-10-13T18:20:43.977Z,99369.70
2017-10-13T18:23:12.319Z,99376.89
2017-10-13T18:25:41.790Z,99369.84
2017-10-13T18:28:10.241Z,99376.53
2017-10-13T18:30:38.665Z,99380.11
2017-10-13T18:33:07.020Z,99376.73
2017-10-13T18:35:35.350Z,99374.20
2017-10-13T18:38:03.689Z,99370.57
2017-10-13T18:40:32.043Z,99376.08
2017-10-13T18:43:00.693Z,99377.50
2017-10-13T18:45:29.029Z,99378.80
2017-10-13T18:47:57.444Z,99374.39
2017-10-13T18:50:25.791Z,99376.44
2017-10-13T18:52:54.164Z,99384.91
2017-10-13T18:55:23.466Z,99382.45
2017-10-13T18:57:51.797Z,99389.30
2017-10-13T19:00:20.594Z,99392.84
2017-10-13T19:02:50.145Z,99399.73
2017-10-13T19:05:18.491Z,99389.77
2017-10-13T19:07:46.877Z,99393.60
2017-10-13T19:10:15.211Z,99392.90
2017-10-13T19:12:44.382Z,99394.11
2017-10-13T19:15:12.726Z,99400.96
2017-10-13T19:17:41.070Z,99400.22
2017-10-13T19:20:09.409Z,99394.92
2017-10-13T19:22:37.747Z,99393.83
2017-10-13T19:25:07.107Z,99397.16
2017-10-13T19:27:35.447Z,99401.78
2017-10-13T19:30:04.445Z,99404.77
2017-10-13T19:32:32.782Z,99406.73
2017-10-13T19:35:01.180Z,99406.80
2017-10-13T19:37:30.292Z,99406.84
2017-10-13T19:39:58.617Z,99410.33
2017-10-13T19:42:26.990Z,99404.58
2017-10-13T19:44:55.347Z,99410.52
2017-10-13T19:47:23.677Z,99412.33
2017-10-13T19:49:52.079Z,99412.66
2017-10-13T19:52:21.193Z,99410.59
2017-10-13T19:54:50.390Z,99413.78
2017-10-13T19:57:18.776Z,99414.04
2017-10-13T19:59:51.245Z,99409.92
2017-10-13T20:02:20.504Z,99410.72
2017-10-13T20:04:48.871Z,99407.31
2017-10-13T20:07:20.193Z,99409.52
2017-10-13T20:09:48.682Z,99410.69
2017-10-13T20:12:17.088Z,99413.63
2017-10-13T20:14:45.447Z,99421.73
2017-10-13T20:17:13.806Z,99423.28
2017-10-13T20:19:43.104Z,99420.39
2017-10-13T20:22:14.556Z,99423.66
2017-10-13T20:24:45.110Z,99430.16
2017-10-13T20:27:14.673Z,99419.43
2017-10-13T20:29:44.241Z,99419.55
2017-10-13T20:32:12.649Z,99421.91
2017-10-13T20:34:41.767Z,99421.80
2017-10-13T20:37:10.134Z,99420.93
2017-10-13T20:39:39.260Z,99416.66
2017-10-13T20:42:07.754Z,99425.05
2017-10-13T20:44:38.324Z,99417.66
2017-10-13T20:47:08.161Z,99413.57
2017-10-13T20:49:37.476Z,99410.62
2017-10-13T20:52:05.861Z,99416.94
2017-10-13T20:54:34.267Z,99417.27
2017-10-13T20:57:07.523Z,99416.69
2017-10-13T20:59:36.891Z,99414.55
2017-10-13T21:02:05.248Z,99412.01
2017-10-13T21:04:33.610Z,99413.34
2017-10-13T21:07:01.980Z,99420.62
2017-10-13T21:09:30.349Z,99415.13
2017-10-13T21:11:58.737Z,99416.70
2017-10-13T21:14:29.258Z,99418.84
2017-10-13T21:16:57.636Z,99420.89
2017-10-13T21:19:27.985Z,99421.87
2017-10-13T21:21:57.494Z,99420.80
2017-10-13T21:24:27.992Z,99416.20
2017-10-13T21:26:57.311Z,99419.23
2017-10-13T21:29:26.623Z,99421.69
2017-10-13T21:31:54.985Z,99425.03
2017-10-13T21:34:24.302Z,99419.05
2017-10-13T21:36:52.656Z,99421.59
2017-10-13T21:39:21.991Z,99424.27
2017-10-13T21:41:52.530Z,99423.31
2017-10-13T21:44:21.808Z,99430.17
2017-10-13T21:46:54.163Z,99438.27
2017-10-13T21:49:23.493Z,99436.43
2017-10-13T21:51:51.854Z,99433.88
2017-10-13T21:54:21.145Z,99437.39
2017-10-13T21:56:50.474Z,99432.68
2017-10-13T21:59:19.800Z,99443.83
2017-10-13T22:01:53.699Z,99442.97
2017-10-13T22:04:23.690Z,99438.26
2017-10-13T22:06:54.890Z,99441.39
2017-10-13T22:09:23.423Z,99445.94
2017-10-13T22:11:51.801Z,99441.78
2017-10-13T22:14:21.135Z,99440.12
2017-10-13T22:16:49.471Z,99445.50
2017-10-13T22:19:22.209Z,99450.45
2017-10-13T22:21:50.545Z,99446.89
2017-10-13T22:24:21.465Z,99450.53
2017-10-13T22:26:50.659Z,99447.25
2017-10-13T22:29:24.039Z,99457.61
2017-10-13T22:31:53.584Z,99458.58
2017-10-13T22:34:22.917Z,99459.83
2017-10-13T22:36:53.421Z,99460.91
2017-10-13T22:39:22.752Z,99455.89
2017-10-13T22:41:54.795Z,99458.34
2017-10-13T22:44:23.149Z,99456.20
2017-10-13T22:46:52.857Z,99455.50
2017-10-13T22:49:22.074Z,99456.58
2017-10-13T22:51:51.352Z,99454.20
2017-10-13T22:54:19.718Z,99454.83
2017-10-13T22:56:48.947Z,99457.83
2017-10-13T22:59:17.446Z,99463.52
2017-10-13T23:01:45.825Z,99462.19
2017-10-13T23:04:14.193Z,99464.23
2017-10-13T23:06:43.516Z,99461.36
2017-10-13T23:09:14.000Z,99457.67
2017-10-13T23:11:42.412Z,99456.97
2017-10-13T23:14:12.912Z,99462.19
2017-10-13T23:16:42.351Z,99464.62
2017-10-13T23:19:10.682Z,99463.97
2017-10-13T23:21:40.222Z,99469.38
2017-10-13T23:24:09.580Z,99470.23
2017-10-13T23:26:38.865Z,99467.70
2017-10-13T23:29:08.162Z,99468.69
2017-10-13T23:31:36.476Z,99469.45
2017-10-13T23:34:05.131Z,99471.66
2017-10-13T23:36:33.559Z,99476.86
2017-10-13T23:39:01.950Z,99476.67
2017-10-13T23:41:31.281Z,99478.25
2017-10-13T23:44:00.568Z,99472.64
2017-10-13T23:46:31.107Z,99478.77
2017-10-13T23:49:01.601Z,99476.73
2017-10-13T23:51:32.172Z,99481.08
2017-10-13T23:54:04.859Z,99483.35
2017-10-13T23:56:35.357Z,99479.97
2017-10-13T23:59:04.439Z,99481.70
